createdAt,value
2019-02-25T00:00:06.878Z,12.82
2019-02-25T00:01:17.404Z,13.25
2019-02-25T00:02:26.100Z,13.55
2019-02-25T00:03:30.372Z,13.48
2019-02-25T00:04:34.630Z,17.30
2019-02-25T00:05:39.016Z,14.90
2019-02-25T00:06:43.162Z,12.63
2019-02-25T00:07:47.660Z,12.98
2019-02-25T00:08:51.860Z,14.23
2019-02-25T00:09:56.087Z,11.38
2019-02-25T00:11:00.352Z,13.72
2019-02-25T00:12:04.637Z,16.20
2019-02-25T00:13:08.945Z,12.95
2019-02-25T00:14:13.130Z,12.70
2019-02-25T00:15:17.344Z,14.07
2019-02-25T00:16:21.555Z,13.00
2019-02-25T00:17:25.851Z,14.35
2019-02-25T00:18:30.110Z,11.30
2019-02-25T00:19:34.345Z,14.28
2019-02-25T00:20:38.616Z,12.75
2019-02-25T00:21:42.946Z,11.68
2019-02-25T00:22:47.073Z,12.90
2019-02-25T00:23:51.239Z,13.08
2019-02-25T00:24:55.595Z,11.68
2019-02-25T00:26:00.215Z,10.63
2019-02-25T00:27:04.425Z,12.13
2019-02-25T00:28:08.718Z,9.35
2019-02-25T00:29:12.876Z,17.25
2019-02-25T00:30:17.218Z,11.28
2019-02-25T00:31:21.389Z,11.80
2019-02-25T00:32:25.711Z,11.18
2019-02-25T00:33:29.928Z,11.70
2019-02-25T00:34:34.231Z,10.38
2019-02-25T00:35:38.438Z,13.40
2019-02-25T00:36:42.717Z,15.60
2019-02-25T00:37:46.929Z,11.30
2019-02-25T00:38:51.644Z,12.03
2019-02-25T00:39:55.952Z,10.23
2019-02-25T00:41:00.491Z,12.98
2019-02-25T00:42:04.773Z,13.28
2019-02-25T00:43:08.999Z,13.58
2019-02-25T00:44:13.172Z,13.83
2019-02-25T00:45:17.423Z,12.00
2019-02-25T00:46:21.627Z,17.52
2019-02-25T00:47:25.825Z,14.68
2019-02-25T00:48:30.143Z,12.90
2019-02-25T00:49:34.715Z,12.98
2019-02-25T00:50:39.046Z,11.48
2019-02-25T00:51:43.196Z,14.00
2019-02-25T00:52:47.703Z,10.65
2019-02-25T00:53:52.027Z,10.35
2019-02-25T00:54:56.208Z,16.15
2019-02-25T00:56:00.537Z,12.25
2019-02-25T00:57:04.681Z,12.43
2019-02-25T00:58:08.826Z,11.33
2019-02-25T00:59:13.140Z,11.55
2019-02-25T01:00:17.767Z,11.00
2019-02-25T01:01:22.103Z,13.50
2019-02-25T01:02:26.319Z,12.35
2019-02-25T01:03:30.604Z,13.45
2019-02-25T01:04:34.884Z,11.18
2019-02-25T01:05:39.072Z,11.40
2019-02-25T01:06:43.443Z,14.10
2019-02-25T01:07:47.772Z,10.72
2019-02-25T01:08:51.982Z,10.65
2019-02-25T01:09:56.294Z,14.07
2019-02-25T01:11:00.458Z,12.37
2019-02-25T01:12:04.665Z,12.40
2019-02-25T01:13:08.901Z,11.60
2019-02-25T01:14:13.201Z,13.20
2019-02-25T01:15:17.906Z,12.73
2019-02-25T01:16:22.131Z,10.35
2019-02-25T01:17:26.459Z,13.78
2019-02-25T01:18:30.781Z,11.60
2019-02-25T01:19:35.048Z,14.95
2019-02-25T01:20:39.259Z,10.88
2019-02-25T01:21:43.555Z,12.43
2019-02-25T01:22:47.830Z,12.13
2019-02-25T01:23:52.035Z,11.68
2019-02-25T01:24:56.260Z,10.18
2019-02-25T01:26:00.435Z,10.70
2019-02-25T01:27:04.958Z,10.65
2019-02-25T01:28:09.113Z,12.65
2019-02-25T01:29:13.470Z,13.15
2019-02-25T01:30:18.712Z,10.15
2019-02-25T01:31:22.968Z,12.35
2019-02-25T01:32:27.304Z,10.98
2019-02-25T01:33:31.517Z,11.03
2019-02-25T01:34:35.826Z,10.88
2019-02-25T01:35:40.107Z,11.65
2019-02-25T01:36:44.402Z,10.88
2019-02-25T01:37:48.572Z,10.28
2019-02-25T01:38:52.873Z,10.10
2019-02-25T01:39:57.223Z,11.33
2019-02-25T01:41:01.434Z,10.20
2019-02-25T01:42:05.739Z,14.65
2019-02-25T01:43:10.059Z,12.03
2019-02-25T01:44:14.335Z,9.55
2019-02-25T01:45:18.635Z,12.10
2019-02-25T01:46:22.812Z,13.58
2019-02-25T01:47:27.084Z,14.03
2019-02-25T01:48:31.407Z,13.90
2019-02-25T01:49:35.739Z,11.65
2019-02-25T01:50:40.045Z,11.12
2019-02-25T01:51:44.245Z,10.23
2019-02-25T01:52:48.366Z,10.45
2019-02-25T01:53:52.545Z,13.60
2019-02-25T01:54:56.852Z,12.98
2019-02-25T01:56:01.168Z,11.20
2019-02-25T01:57:05.383Z,10.55
2019-02-25T01:58:09.662Z,10.15
2019-02-25T01:59:13.835Z,12.10
2019-02-25T02:00:18.128Z,10.32
2019-02-25T02:01:22.388Z,16.50
2019-02-25T02:02:26.743Z,13.48
2019-02-25T02:03:31.419Z,13.22
2019-02-25T02:04:35.673Z,10.63
2019-02-25T02:05:39.821Z,11.22
2019-02-25T02:06:44.143Z,11.95
2019-02-25T02:07:48.341Z,10.30
2019-02-25T02:08:52.645Z,13.85
2019-02-25T02:09:56.944Z,12.95
2019-02-25T02:11:01.140Z,13.32
2019-02-25T02:12:05.467Z,11.50
2019-02-25T02:13:14.157Z,10.35
2019-02-25T02:14:15.748Z,12.30
2019-02-25T02:15:19.949Z,10.80
2019-02-25T02:16:24.258Z,12.75
2019-02-25T02:17:28.601Z,12.63
2019-02-25T02:18:32.829Z,10.32
2019-02-25T02:19:37.019Z,11.50
2019-02-25T02:20:41.558Z,11.08
2019-02-25T02:21:45.825Z,11.05
2019-02-25T02:22:50.002Z,13.85
2019-02-25T02:23:54.295Z,9.53
2019-02-25T02:24:58.601Z,11.75
2019-02-25T02:26:02.756Z,12.58
2019-02-25T02:27:07.042Z,11.30
2019-02-25T02:28:11.268Z,11.63
2019-02-25T02:29:15.465Z,17.05
2019-02-25T02:30:19.999Z,10.50
2019-02-25T02:31:24.201Z,16.32
2019-02-25T02:32:28.507Z,12.15
2019-02-25T02:33:32.671Z,10.75
2019-02-25T02:34:36.948Z,9.88
2019-02-25T02:35:41.221Z,12.10
2019-02-25T02:36:45.473Z,13.88
2019-02-25T02:37:49.793Z,10.60
2019-02-25T02:38:54.115Z,9.83
2019-02-25T02:39:58.517Z,9.10
2019-02-25T02:41:02.789Z,10.60
2019-02-25T02:42:23.023Z,12.45
2019-02-25T02:43:27.171Z,14.00
2019-02-25T02:44:31.386Z,8.08
2019-02-25T02:45:48.140Z,11.45
2019-02-25T02:47:37.695Z,10.53
2019-02-25T02:48:45.685Z,12.93
2019-02-25T02:49:50.019Z,12.15
2019-02-25T02:50:54.191Z,13.70
2019-02-25T02:51:58.412Z,12.85
2019-02-25T02:53:02.700Z,11.55
2019-02-25T02:54:06.888Z,11.83
2019-02-25T02:55:11.362Z,11.48
2019-02-25T02:56:15.773Z,16.07
2019-02-25T02:57:20.103Z,13.13
2019-02-25T02:58:24.393Z,10.30
2019-02-25T02:59:28.676Z,12.80
2019-02-25T03:00:32.967Z,11.12
2019-02-25T03:01:37.178Z,12.28
2019-02-25T03:02:41.432Z,12.95
2019-02-25T03:03:45.697Z,11.73
2019-02-25T03:04:49.880Z,16.00
2019-02-25T03:05:54.054Z,12.40
2019-02-25T03:06:58.245Z,11.60
2019-02-25T03:08:02.384Z,12.75
2019-02-25T03:09:08.534Z,10.08
2019-02-25T03:10:14.495Z,10.58
2019-02-25T03:11:18.708Z,12.75
2019-02-25T03:12:23.011Z,12.23
2019-02-25T03:13:27.325Z,11.38
2019-02-25T03:14:31.626Z,10.10
2019-02-25T03:15:35.793Z,13.78
2019-02-25T03:16:40.027Z,12.18
2019-02-25T03:17:44.231Z,10.28
2019-02-25T03:18:48.643Z,12.85
2019-02-25T03:19:52.945Z,12.45
2019-02-25T03:20:57.157Z,10.90
2019-02-25T03:22:01.459Z,12.25
2019-02-25T03:23:05.964Z,11.38
2019-02-25T03:24:10.248Z,13.13
2019-02-25T03:25:16.022Z,13.35
2019-02-25T03:26:20.240Z,11.15
2019-02-25T03:27:24.399Z,11.20
2019-02-25T03:28:28.625Z,12.47
2019-02-25T03:29:32.797Z,11.40
2019-02-25T03:30:36.931Z,14.05
2019-02-25T03:31:41.140Z,12.55
2019-02-25T03:32:45.592Z,12.73
2019-02-25T03:33:49.742Z,12.40
2019-02-25T03:34:54.025Z,12.47
2019-02-25T03:35:58.319Z,15.43
2019-02-25T03:37:02.498Z,13.25
2019-02-25T03:38:06.819Z,11.97
2019-02-25T03:39:11.111Z,14.33
2019-02-25T03:40:16.878Z,10.25
2019-02-25T03:41:21.051Z,11.25
2019-02-25T03:42:25.487Z,8.78
2019-02-25T03:43:29.670Z,8.30
2019-02-25T03:44:33.967Z,11.48
2019-02-25T03:45:38.118Z,9.30
2019-02-25T03:46:42.266Z,11.25
2019-02-25T03:47:46.441Z,10.53
2019-02-25T03:48:50.781Z,9.35
2019-02-25T03:49:54.975Z,12.45
2019-02-25T03:50:59.266Z,9.03
2019-02-25T03:52:03.543Z,9.70
2019-02-25T03:53:07.889Z,8.95
2019-02-25T03:54:12.154Z,9.90
2019-02-25T03:55:17.714Z,9.50
2019-02-25T03:56:21.926Z,10.35
2019-02-25T03:57:26.188Z,8.70
2019-02-25T03:58:30.557Z,10.90
2019-02-25T03:59:34.961Z,9.48
2019-02-25T04:00:39.119Z,12.75
2019-02-25T04:01:43.693Z,9.58
2019-02-25T04:02:48.085Z,11.78
2019-02-25T04:03:52.308Z,9.98
2019-02-25T04:04:56.596Z,11.53
2019-02-25T04:06:00.849Z,8.20
2019-02-25T04:07:05.327Z,10.40
2019-02-25T04:08:09.509Z,9.58
2019-02-25T04:09:13.811Z,9.38
2019-02-25T04:10:18.164Z,11.22
2019-02-25T04:11:22.648Z,10.15
2019-02-25T04:12:26.833Z,10.53
2019-02-25T04:13:31.099Z,9.58
2019-02-25T04:14:35.267Z,14.10
2019-02-25T04:15:42.352Z,12.63
2019-02-25T04:16:46.627Z,11.00
2019-02-25T04:17:50.885Z,12.00
2019-02-25T04:18:55.210Z,9.05
2019-02-25T04:19:59.442Z,15.18
2019-02-25T04:21:03.979Z,10.32
2019-02-25T04:22:08.622Z,11.10
2019-02-25T04:23:12.907Z,9.20
2019-02-25T04:24:17.196Z,9.13
2019-02-25T04:25:21.388Z,10.32
2019-02-25T04:26:25.672Z,10.15
2019-02-25T04:27:29.852Z,9.63
2019-02-25T04:28:33.966Z,9.95
2019-02-25T04:29:38.259Z,12.82
2019-02-25T04:30:42.574Z,11.70
2019-02-25T04:31:46.900Z,10.78
2019-02-25T04:32:51.086Z,11.12
2019-02-25T04:33:55.303Z,9.43
2019-02-25T04:34:59.609Z,12.20
2019-02-25T04:36:03.939Z,9.03
2019-02-25T04:37:08.155Z,10.98
2019-02-25T04:38:12.316Z,10.03
2019-02-25T04:39:16.591Z,8.35
2019-02-25T04:40:20.829Z,12.30
2019-02-25T04:41:25.051Z,10.85
2019-02-25T04:42:29.611Z,11.93
2019-02-25T04:43:33.815Z,8.65
2019-02-25T04:44:38.113Z,9.88
2019-02-25T04:45:42.415Z,10.88
2019-02-25T04:46:46.700Z,13.40
2019-02-25T04:47:50.844Z,10.08
2019-02-25T04:48:55.133Z,10.58
2019-02-25T04:49:59.385Z,11.90
2019-02-25T04:51:03.644Z,12.05
2019-02-25T04:52:07.947Z,9.10
2019-02-25T04:53:12.255Z,11.60
2019-02-25T04:54:16.573Z,9.53
2019-02-25T04:55:20.722Z,10.30
2019-02-25T04:56:25.545Z,11.60
2019-02-25T04:57:29.907Z,9.83
2019-02-25T04:58:34.251Z,11.83
2019-02-25T04:59:38.588Z,12.68
2019-02-25T05:00:42.894Z,9.53
2019-02-25T05:01:47.215Z,9.10
2019-02-25T05:02:51.529Z,10.30
2019-02-25T05:03:55.779Z,10.72
2019-02-25T05:05:00.044Z,10.30
2019-02-25T05:06:04.590Z,10.75
2019-02-25T05:07:08.866Z,9.28
2019-02-25T05:08:13.172Z,11.63
2019-02-25T05:09:17.339Z,10.55
2019-02-25T05:10:21.492Z,13.08
2019-02-25T05:11:29.975Z,10.65
2019-02-25T05:12:34.250Z,10.95
2019-02-25T05:13:38.485Z,18.15
2019-02-25T05:14:42.774Z,10.35
2019-02-25T05:15:47.100Z,13.32
2019-02-25T05:16:51.305Z,11.75
2019-02-25T05:17:55.607Z,10.38
2019-02-25T05:18:59.843Z,9.60
2019-02-25T05:20:04.415Z,10.63
2019-02-25T05:21:08.624Z,11.97
2019-02-25T05:22:12.789Z,10.13
2019-02-25T05:23:17.124Z,10.25
2019-02-25T05:24:21.484Z,11.43
2019-02-25T05:25:26.055Z,12.30
2019-02-25T05:26:30.394Z,9.00
2019-02-25T05:27:34.695Z,11.48
2019-02-25T05:28:38.985Z,9.03
2019-02-25T05:29:43.234Z,10.48
2019-02-25T05:30:47.448Z,9.98
2019-02-25T05:31:51.676Z,12.07
2019-02-25T05:32:55.817Z,11.25
2019-02-25T05:34:00.064Z,10.68
2019-02-25T05:35:04.711Z,9.98
2019-02-25T05:36:08.909Z,10.08
2019-02-25T05:37:13.149Z,11.43
2019-02-25T05:38:17.606Z,12.07
2019-02-25T05:39:21.771Z,10.00
2019-02-25T05:40:26.005Z,10.40
2019-02-25T05:41:30.184Z,15.72
2019-02-25T05:42:34.419Z,11.10
2019-02-25T05:43:38.604Z,12.03
2019-02-25T05:44:42.958Z,9.68
2019-02-25T05:45:47.114Z,18.77
2019-02-25T05:46:51.421Z,12.95
2019-02-25T05:47:55.575Z,12.80
2019-02-25T05:48:59.841Z,15.90
2019-02-25T05:50:04.402Z,12.65
2019-02-25T05:51:08.503Z,9.80
2019-02-25T05:52:12.717Z,14.65
2019-02-25T05:53:17.011Z,15.63
2019-02-25T05:54:21.688Z,13.35
2019-02-25T05:55:26.292Z,16.15
2019-02-25T05:56:30.447Z,14.18
2019-02-25T05:57:34.617Z,14.03
2019-02-25T05:58:38.946Z,12.98
2019-02-25T05:59:43.122Z,12.43
2019-02-25T06:00:47.431Z,13.05
2019-02-25T06:01:51.689Z,21.45
2019-02-25T06:02:55.973Z,12.90
2019-02-25T06:04:00.204Z,11.53
2019-02-25T06:05:04.391Z,14.50
2019-02-25T06:06:08.739Z,10.63
2019-02-25T06:07:13.036Z,13.55
2019-02-25T06:08:17.315Z,13.35
2019-02-25T06:09:21.755Z,12.82
2019-02-25T06:10:25.996Z,9.15
2019-02-25T06:11:30.237Z,14.05
2019-02-25T06:12:34.524Z,14.38
2019-02-25T06:13:38.806Z,16.15
2019-02-25T06:14:43.091Z,14.40
2019-02-25T06:15:47.312Z,14.63
2019-02-25T06:16:51.585Z,15.28
2019-02-25T06:17:55.817Z,18.12
2019-02-25T06:19:00.113Z,12.95
2019-02-25T06:20:04.806Z,16.90
2019-02-25T06:21:09.035Z,12.70
2019-02-25T06:22:13.310Z,12.15
2019-02-25T06:23:17.519Z,13.00
2019-02-25T06:24:21.839Z,12.07
2019-02-25T06:25:26.123Z,12.53
2019-02-25T06:26:30.403Z,13.85
2019-02-25T06:27:34.625Z,11.80
2019-02-25T06:28:39.030Z,16.57
2019-02-25T06:29:43.230Z,17.02
2019-02-25T06:30:47.575Z,13.55
2019-02-25T06:31:52.197Z,12.88
2019-02-25T06:32:56.519Z,13.05
2019-02-25T06:34:00.744Z,18.80
2019-02-25T06:35:05.863Z,14.07
2019-02-25T06:36:10.105Z,11.88
2019-02-25T06:37:14.313Z,16.75
2019-02-25T06:38:18.660Z,16.48
2019-02-25T06:39:22.979Z,16.85
2019-02-25T06:40:27.346Z,13.95
2019-02-25T06:41:31.758Z,12.58
2019-02-25T06:42:36.028Z,27.48
2019-02-25T06:43:40.363Z,11.73
2019-02-25T06:44:44.603Z,16.25
2019-02-25T06:45:48.807Z,17.62
2019-02-25T06:46:53.179Z,10.10
2019-02-25T06:47:57.400Z,11.88
2019-02-25T06:49:01.615Z,13.53
2019-02-25T06:50:06.257Z,13.18
2019-02-25T06:51:10.458Z,10.82
2019-02-25T06:52:14.662Z,16.12
2019-02-25T06:53:18.809Z,12.28
2019-02-25T06:54:42.212Z,16.02
2019-02-25T06:55:46.543Z,11.95
2019-02-25T06:56:50.725Z,13.72
2019-02-25T06:57:55.001Z,15.30
2019-02-25T06:58:59.295Z,13.68
2019-02-25T07:00:03.591Z,20.10
2019-02-25T07:01:07.885Z,20.10
2019-02-25T07:02:12.053Z,16.82
2019-02-25T07:03:16.351Z,15.98
2019-02-25T07:04:26.406Z,14.55
2019-02-25T07:05:48.619Z,19.30
2019-02-25T07:07:17.905Z,16.87
2019-02-25T07:08:44.309Z,13.75
2019-02-25T07:09:58.905Z,14.90
2019-02-25T07:11:22.143Z,14.23
2019-02-25T07:12:34.321Z,18.07
2019-02-25T07:13:56.439Z,12.07
2019-02-25T07:15:10.587Z,13.78
2019-02-25T07:16:32.824Z,15.55
2019-02-25T07:17:58.845Z,11.60
2019-02-25T07:19:21.123Z,15.95
2019-02-25T07:20:40.518Z,17.55
2019-02-25T07:22:23.889Z,22.45
2019-02-25T07:23:46.008Z,18.42
2019-02-25T07:25:12.055Z,17.37
2019-02-25T07:26:32.333Z,11.68
2019-02-25T07:27:58.253Z,14.40
2019-02-25T07:29:30.525Z,13.53
2019-02-25T07:30:55.460Z,12.78
2019-02-25T07:32:12.534Z,13.20
2019-02-25T07:33:31.104Z,15.23
2019-02-25T07:35:12.466Z,15.40
2019-02-25T07:36:38.742Z,16.52
2019-02-25T07:38:03.830Z,14.70
2019-02-25T07:39:16.155Z,15.63
2019-02-25T07:40:31.632Z,16.35
2019-02-25T07:41:57.402Z,16.32
2019-02-25T07:43:19.576Z,14.55
2019-02-25T07:44:42.830Z,16.25
2019-02-25T07:46:06.777Z,12.85
2019-02-25T07:47:24.502Z,9.03
2019-02-25T07:48:47.222Z,14.35
2019-02-25T07:50:09.347Z,18.25
2019-02-25T07:51:27.727Z,15.25
2019-02-25T07:52:46.267Z,12.47
2019-02-25T07:54:03.668Z,13.93
2019-02-25T07:55:25.816Z,11.80
2019-02-25T07:56:40.355Z,11.88
2019-02-25T07:57:53.344Z,13.58
2019-02-25T07:59:16.565Z,14.50
2019-02-25T08:00:33.031Z,20.27
2019-02-25T08:01:57.794Z,17.12
2019-02-25T08:03:26.583Z,16.37
2019-02-25T08:04:47.648Z,18.92
2019-02-25T08:06:13.739Z,15.80
2019-02-25T08:07:25.677Z,12.60
2019-02-25T08:08:48.897Z,11.63
2019-02-25T08:10:05.635Z,13.35
2019-02-25T08:11:38.180Z,12.80
2019-02-25T08:13:01.416Z,12.28
2019-02-25T08:14:27.642Z,12.30
2019-02-25T08:15:44.149Z,13.45
2019-02-25T08:17:25.569Z,13.48
2019-02-25T08:18:53.179Z,12.23
2019-02-25T08:20:16.428Z,12.93
2019-02-25T08:21:38.667Z,16.05
2019-02-25T08:23:01.911Z,14.70
2019-02-25T08:24:30.149Z,16.67
2019-02-25T08:25:38.779Z,14.30
2019-02-25T08:27:05.038Z,12.18
2019-02-25T08:28:37.395Z,11.78
2019-02-25T08:29:55.827Z,14.40
2019-02-25T08:31:09.326Z,11.00
2019-02-25T08:32:24.716Z,12.45
2019-02-25T08:33:47.981Z,11.95
2019-02-25T08:35:09.452Z,11.88
2019-02-25T08:37:09.504Z,12.20
2019-02-25T08:38:39.707Z,11.03
2019-02-25T08:39:59.083Z,14.07
2019-02-25T08:41:27.856Z,12.18
2019-02-25T08:42:46.971Z,15.78
2019-02-25T08:44:08.833Z,14.10
2019-02-25T08:45:31.729Z,13.75
2019-02-25T08:46:54.959Z,10.78
2019-02-25T08:48:24.252Z,12.80
2019-02-25T08:49:34.843Z,12.58
2019-02-25T08:50:39.179Z,14.00
2019-02-25T08:51:43.918Z,12.30
2019-02-25T08:52:48.497Z,12.63
2019-02-25T08:53:52.774Z,10.63
2019-02-25T08:54:56.969Z,13.58
2019-02-25T08:56:01.085Z,11.65
2019-02-25T08:57:05.252Z,14.45
2019-02-25T08:58:09.563Z,11.08
2019-02-25T08:59:13.878Z,11.05
2019-02-25T09:00:18.103Z,12.60
2019-02-25T09:01:22.358Z,11.00
2019-02-25T09:02:26.551Z,14.83
2019-02-25T09:03:30.773Z,10.58
2019-02-25T09:04:35.070Z,13.93
2019-02-25T09:05:39.404Z,13.03
2019-02-25T09:06:43.711Z,12.10
2019-02-25T09:07:47.977Z,14.07
2019-02-25T09:08:52.173Z,11.57
2019-02-25T09:09:56.382Z,11.00
2019-02-25T09:11:00.594Z,13.75
2019-02-25T09:12:04.870Z,12.93
2019-02-25T09:13:09.071Z,12.75
2019-02-25T09:14:13.404Z,14.78
2019-02-25T09:15:17.654Z,15.30
2019-02-25T09:16:21.963Z,11.57
2019-02-25T09:17:26.153Z,12.10
2019-02-25T09:18:30.477Z,12.63
2019-02-25T09:19:34.619Z,13.55
2019-02-25T09:20:38.797Z,15.23
2019-02-25T09:21:43.113Z,13.05
2019-02-25T09:22:47.284Z,12.35
2019-02-25T09:23:51.593Z,12.10
2019-02-25T09:24:55.804Z,12.58
2019-02-25T09:26:00.089Z,10.38
2019-02-25T09:27:04.321Z,11.33
2019-02-25T09:28:08.503Z,12.28
2019-02-25T09:29:12.709Z,14.95
2019-02-25T09:30:17.393Z,12.18
2019-02-25T09:31:21.716Z,11.48
2019-02-25T09:32:25.968Z,9.23
2019-02-25T09:33:30.202Z,12.58
2019-02-25T09:34:34.568Z,11.15
2019-02-25T09:35:38.907Z,12.03
2019-02-25T09:36:43.130Z,11.28
2019-02-25T09:37:47.646Z,8.80
2019-02-25T09:38:52.280Z,11.53
2019-02-25T09:39:56.539Z,12.50
2019-02-25T09:41:00.758Z,10.90
2019-02-25T09:42:05.007Z,11.08
2019-02-25T09:43:09.283Z,14.38
2019-02-25T09:44:13.431Z,12.20
2019-02-25T09:45:17.649Z,11.03
2019-02-25T09:46:21.911Z,11.43
2019-02-25T09:47:26.241Z,14.65
2019-02-25T09:48:30.869Z,11.63
2019-02-25T09:49:35.146Z,12.63
2019-02-25T09:50:39.456Z,11.08
2019-02-25T09:51:43.743Z,8.70
2019-02-25T09:52:47.913Z,12.28
2019-02-25T09:53:52.219Z,13.48
2019-02-25T09:54:56.503Z,11.38
2019-02-25T09:56:00.647Z,9.43
2019-02-25T09:57:04.847Z,9.50
2019-02-25T09:58:09.035Z,9.88
2019-02-25T09:59:13.505Z,10.80
2019-02-25T10:00:17.861Z,10.63
2019-02-25T10:01:22.162Z,12.95
2019-02-25T10:02:26.570Z,12.35
2019-02-25T10:03:31.205Z,10.95
2019-02-25T10:04:35.495Z,10.32
2019-02-25T10:05:39.863Z,10.15
2019-02-25T10:06:44.057Z,11.40
2019-02-25T10:07:48.407Z,9.83
2019-02-25T10:08:52.628Z,12.33
2019-02-25T10:09:57.274Z,11.10
2019-02-25T10:11:01.878Z,10.68
2019-02-25T10:12:06.150Z,10.95
2019-02-25T10:13:10.345Z,11.95
2019-02-25T10:14:14.535Z,13.40
2019-02-25T10:15:19.147Z,11.97
2019-02-25T10:16:23.459Z,13.95
2019-02-25T10:17:27.637Z,10.50
2019-02-25T10:18:31.879Z,9.40
2019-02-25T10:19:36.173Z,11.88
2019-02-25T10:20:40.625Z,10.15
2019-02-25T10:21:44.913Z,11.22
2019-02-25T10:22:49.083Z,11.12
2019-02-25T10:23:53.499Z,13.40
2019-02-25T10:24:57.831Z,13.48
2019-02-25T10:26:02.159Z,11.38
2019-02-25T10:27:06.403Z,15.98
2019-02-25T10:28:11.123Z,11.70
2019-02-25T10:29:15.352Z,11.40
2019-02-25T10:30:20.026Z,13.10
2019-02-25T10:31:24.199Z,9.55
2019-02-25T10:32:30.174Z,9.55
2019-02-25T10:33:34.563Z,11.10
2019-02-25T10:34:38.746Z,15.23
2019-02-25T10:35:42.929Z,11.85
2019-02-25T10:36:48.138Z,9.93
2019-02-25T10:37:52.985Z,10.98
2019-02-25T10:38:57.297Z,8.85
2019-02-25T10:40:01.497Z,9.15
2019-02-25T10:41:05.694Z,10.88
2019-02-25T10:42:09.982Z,10.18
2019-02-25T10:43:14.193Z,9.85
2019-02-25T10:44:18.480Z,10.55
2019-02-25T10:45:22.807Z,9.50
2019-02-25T10:46:27.007Z,11.05
2019-02-25T10:47:31.531Z,9.48
2019-02-25T10:48:35.863Z,12.07
2019-02-25T10:49:40.063Z,8.58
2019-02-25T10:50:44.416Z,11.10
2019-02-25T10:51:48.586Z,9.65
2019-02-25T10:52:52.761Z,10.80
2019-02-25T10:53:56.930Z,8.15
2019-02-25T10:55:01.215Z,9.78
2019-02-25T10:56:23.857Z,9.50
2019-02-25T10:57:30.952Z,11.45
2019-02-25T10:58:36.019Z,10.68
2019-02-25T10:59:41.497Z,9.53
2019-02-25T11:00:46.133Z,11.40
2019-02-25T11:01:50.475Z,10.80
2019-02-25T11:02:56.453Z,9.73
2019-02-25T11:04:00.746Z,10.00
2019-02-25T11:05:05.549Z,13.03
2019-02-25T11:06:09.734Z,9.15
2019-02-25T11:07:14.064Z,10.30
2019-02-25T11:08:18.745Z,9.45
2019-02-25T11:09:57.048Z,11.05
2019-02-25T11:11:05.597Z,9.58
2019-02-25T11:12:09.907Z,11.33
2019-02-25T11:13:14.290Z,10.05
2019-02-25T11:14:18.537Z,8.70
2019-02-25T11:15:22.914Z,12.13
2019-02-25T11:16:27.153Z,8.78
2019-02-25T11:17:31.346Z,8.38
2019-02-25T11:18:35.538Z,10.65
2019-02-25T11:19:39.777Z,8.95
2019-02-25T11:20:44.056Z,8.18
2019-02-25T11:21:48.217Z,6.78
2019-02-25T11:22:52.529Z,8.50
2019-02-25T11:23:56.797Z,7.65
2019-02-25T11:25:01.045Z,8.20
2019-02-25T11:26:05.727Z,6.72
2019-02-25T11:27:09.939Z,7.35
2019-02-25T11:28:24.788Z,8.55
2019-02-25T11:29:20.213Z,9.35
2019-02-25T11:30:24.506Z,10.85
2019-02-25T11:31:29.226Z,6.40
2019-02-25T11:32:33.785Z,7.60
2019-02-25T11:33:38.005Z,10.00
2019-02-25T11:34:42.276Z,9.88
2019-02-25T11:35:48.065Z,7.47
2019-02-25T11:36:54.700Z,8.63
2019-02-25T11:37:59.833Z,8.58
2019-02-25T11:39:07.007Z,8.45
2019-02-25T11:40:11.808Z,11.75
2019-02-25T11:41:16.086Z,13.53
2019-02-25T11:42:20.629Z,8.88
2019-02-25T11:43:25.417Z,12.20
2019-02-25T11:44:31.273Z,8.68
2019-02-25T11:45:36.423Z,13.28
2019-02-25T11:46:40.768Z,9.38
2019-02-25T11:47:45.095Z,10.70
2019-02-25T11:48:49.234Z,9.23
2019-02-25T11:49:53.372Z,9.15
2019-02-25T11:50:57.556Z,9.83
2019-02-25T11:52:01.887Z,7.78
2019-02-25T11:53:06.090Z,7.35
2019-02-25T11:54:10.298Z,8.60
2019-02-25T11:55:14.615Z,6.62
2019-02-25T11:56:18.890Z,8.73
2019-02-25T11:57:23.079Z,6.83
2019-02-25T11:58:27.443Z,7.78
2019-02-25T11:59:31.741Z,7.45
2019-02-25T12:00:36.845Z,7.08
2019-02-25T12:01:41.027Z,5.92
2019-02-25T12:02:45.752Z,8.43
2019-02-25T12:03:50.078Z,8.35
2019-02-25T12:04:54.449Z,7.87
2019-02-25T12:05:58.652Z,6.70
2019-02-25T12:07:02.988Z,7.22
2019-02-25T12:08:07.334Z,7.92
2019-02-25T12:09:11.960Z,7.47
2019-02-25T12:10:16.474Z,8.05
2019-02-25T12:11:20.767Z,8.73
2019-02-25T12:12:25.138Z,6.70
2019-02-25T12:13:29.343Z,8.23
2019-02-25T12:14:33.581Z,7.12
2019-02-25T12:15:37.952Z,6.70
2019-02-25T12:16:42.165Z,9.05
2019-02-25T12:17:46.456Z,9.58
2019-02-25T12:18:50.630Z,7.20
2019-02-25T12:19:54.795Z,5.53
2019-02-25T12:20:58.979Z,9.05
2019-02-25T12:22:03.304Z,8.18
2019-02-25T12:23:07.691Z,7.83
2019-02-25T12:24:11.992Z,6.75
2019-02-25T12:25:16.244Z,8.85
2019-02-25T12:26:20.525Z,9.08
2019-02-25T12:27:24.815Z,6.35
2019-02-25T12:28:28.962Z,10.70
2019-02-25T12:29:33.254Z,7.70
2019-02-25T12:30:37.906Z,6.60
2019-02-25T12:31:42.199Z,6.08
2019-02-25T12:32:46.487Z,5.45
2019-02-25T12:33:50.694Z,6.97
2019-02-25T12:34:54.973Z,9.50
2019-02-25T12:35:59.269Z,5.80
2019-02-25T12:37:03.482Z,5.97
2019-02-25T12:38:07.793Z,7.03
2019-02-25T12:39:12.194Z,7.30
2019-02-25T12:40:17.199Z,4.45
2019-02-25T12:41:21.555Z,4.85
2019-02-25T12:42:25.891Z,5.10
2019-02-25T12:43:30.054Z,6.87
2019-02-25T12:44:34.427Z,6.03
2019-02-25T12:45:38.715Z,5.87
2019-02-25T12:46:43.037Z,6.08
2019-02-25T12:47:47.287Z,4.42
2019-02-25T12:48:51.513Z,4.85
2019-02-25T12:49:55.831Z,7.08
2019-02-25T12:51:00.103Z,4.87
2019-02-25T12:52:04.254Z,4.40
2019-02-25T12:53:08.485Z,5.87
2019-02-25T12:54:12.669Z,3.75
2019-02-25T12:55:16.967Z,4.58
2019-02-25T12:56:21.169Z,4.35
2019-02-25T12:57:25.953Z,4.78
2019-02-25T12:58:30.321Z,3.60
2019-02-25T12:59:34.500Z,7.33
2019-02-25T13:00:39.046Z,4.03
2019-02-25T13:01:43.356Z,6.55
2019-02-25T13:02:47.483Z,4.97
2019-02-25T13:03:51.823Z,4.15
2019-02-25T13:04:56.098Z,6.33
2019-02-25T13:06:01.531Z,5.33
2019-02-25T13:07:06.171Z,3.87
2019-02-25T13:08:10.357Z,4.95
2019-02-25T13:09:15.655Z,3.50
2019-02-25T13:10:20.149Z,3.25
2019-02-25T13:11:24.937Z,5.03
2019-02-25T13:12:29.191Z,3.40
2019-02-25T13:13:33.471Z,4.55
2019-02-25T13:14:37.833Z,6.05
2019-02-25T13:15:42.185Z,5.65
2019-02-25T13:16:46.469Z,7.25
2019-02-25T13:17:50.622Z,5.12
2019-02-25T13:18:54.881Z,4.37
2019-02-25T13:19:59.103Z,5.42
2019-02-25T13:21:03.526Z,4.75
2019-02-25T13:22:07.722Z,4.03
2019-02-25T13:23:12.273Z,3.70
2019-02-25T13:24:16.575Z,6.08
2019-02-25T13:25:20.956Z,6.60
2019-02-25T13:26:26.744Z,4.60
2019-02-25T13:27:31.105Z,5.12
2019-02-25T13:28:35.471Z,4.08
2019-02-25T13:29:39.629Z,8.90
2019-02-25T13:30:44.161Z,4.78
2019-02-25T13:31:48.459Z,5.47
2019-02-25T13:32:52.698Z,4.05
2019-02-25T13:33:56.951Z,4.45
2019-02-25T13:35:01.257Z,3.87
2019-02-25T13:36:10.587Z,5.30
2019-02-25T13:37:14.962Z,8.40
2019-02-25T13:38:19.255Z,4.08
2019-02-25T13:39:23.591Z,5.67
2019-02-25T13:40:27.890Z,4.55
2019-02-25T13:41:32.213Z,5.37
2019-02-25T13:42:36.893Z,5.78
2019-02-25T13:43:41.154Z,3.95
2019-02-25T13:44:45.563Z,3.70
2019-02-25T13:45:49.934Z,9.30
2019-02-25T13:46:54.349Z,3.90
2019-02-25T13:47:58.715Z,3.58
2019-02-25T13:49:03.083Z,4.10
2019-02-25T13:50:08.124Z,4.00
2019-02-25T13:51:12.918Z,10.05
2019-02-25T13:52:17.291Z,3.12
2019-02-25T13:53:21.603Z,4.47
2019-02-25T13:54:25.807Z,3.90
2019-02-25T13:55:30.363Z,5.35
2019-02-25T13:56:35.267Z,3.20
2019-02-25T13:57:39.643Z,4.12
2019-02-25T13:58:44.057Z,4.10
2019-02-25T13:59:48.693Z,3.55
2019-02-25T14:00:52.911Z,4.72
2019-02-25T14:01:57.404Z,3.17
2019-02-25T14:03:03.360Z,2.92
2019-02-25T14:04:07.849Z,4.55
2019-02-25T14:05:12.117Z,4.28
2019-02-25T14:06:16.372Z,4.12
2019-02-25T14:07:20.775Z,6.30
2019-02-25T14:08:25.105Z,3.17
2019-02-25T14:09:29.399Z,4.35
2019-02-25T14:10:33.758Z,3.60
2019-02-25T14:11:38.305Z,3.87
2019-02-25T14:12:42.657Z,4.22
2019-02-25T14:13:46.926Z,5.83
2019-02-25T14:14:51.687Z,3.25
2019-02-25T14:15:56.391Z,3.95
2019-02-25T14:17:00.591Z,9.10
2019-02-25T14:18:05.197Z,5.50
2019-02-25T14:19:09.616Z,4.05
2019-02-25T14:20:16.026Z,3.37
2019-02-25T14:21:20.361Z,3.83
2019-02-25T14:22:24.693Z,2.60
2019-02-25T14:23:28.924Z,4.95